Time;durP1;ratioP1;P1;durP2;ratioP2;P2;SDS_P1;SDS_P2;PMS_P1;PMS_P2;Temp;Humidity;BMP_temperature;BMP_pressure;BME280_temperature;BME280_humidity;BME280_pressure;Samples;Min_cycle;Max_cycle;Signal;HPM_P1;HPM_P2
2022/07/21 00:00:55;;;;;;;;;;;24.10;67.00;;;;;;1989579;28;19956;-62
2022/07/21 00:01:54;;;;;;;;;;;24.10;67.00;;;;;;1989562;28;19960;-63
2022/07/21 00:02:53;;;;;;;;;;;24.10;67.00;;;;;;1989840;28;19993;-63
2022/07/21 00:03:52;;;;;;;;;;;24.00;66.90;;;;;;1989728;28;19972;-63
2022/07/21 00:04:51;;;;;;;;;;;24.00;66.90;;;;;;1989504;28;19961;-63
2022/07/21 00:05:49;;;;;;;;;;;24.00;66.90;;;;;;1989643;28;19913;-63
2022/07/21 00:06:48;;;;;;;;;;;24.10;67.00;;;;;;1981225;29;19973;-63
2022/07/21 00:07:46;;;;;;;;;;;24.10;67.00;;;;;;1981142;29;19906;-63
2022/07/21 00:08:45;;;;;;;;;;;24.10;67.00;;;;;;1989090;28;19913;-63
2022/07/21 00:09:44;;;;;;;;;;;24.10;67.00;;;;;;1989512;28;19937;-63
2022/07/21 00:10:42;;;;;;;;;;;24.10;67.00;;;;;;1989267;28;19940;-63
2022/07/21 00:11:41;;;;;;;;;;;24.00;66.90;;;;;;1981152;29;19946;-63
2022/07/21 00:12:40;;;;;;;;;;;24.10;67.00;;;;;;1981205;29;20317;-63
2022/07/21 00:13:38;;;;;;;;;;;24.10;67.00;;;;;;1989080;28;19910;-63
2022/07/21 00:14:37;;;;;;;;;;;24.10;67.00;;;;;;1989311;28;19906;-63
2022/07/21 00:15:35;;;;;;;;;;;24.00;66.90;;;;;;1989444;28;19933;-63
2022/07/21 00:16:34;;;;;;;;;;;24.10;67.00;;;;;;1989594;28;20018;-63
2022/07/21 00:17:33;;;;;;;;;;;24.10;67.00;;;;;;1989447;28;19996;-63
2022/07/21 00:18:32;;;;;;;;;;;24.00;66.90;;;;;;1989448;28;19913;-63
2022/07/21 00:19:30;;;;;;;;;;;24.10;67.10;;;;;;1989517;28;19952;-62
2022/07/21 00:20:30;;;;;;;;;;;24.10;67.10;;;;;;1989435;28;19913;-62
2022/07/21 00:21:29;;;;;;;;;;;24.00;67.10;;;;;;1989484;28;19913;-62
2022/07/21 00:22:27;;;;;;;;;;;24.00;67.10;;;;;;1980977;29;19913;-62
2022/07/21 00:23:26;;;;;;;;;;;24.10;67.10;;;;;;1981116;29;19913;-62
2022/07/21 00:24:24;;;;;;;;;;;24.00;67.00;;;;;;1988878;28;19976;-64
2022/07/21 00:25:23;;;;;;;;;;;24.00;67.00;;;;;;1989514;28;20348;-62
2022/07/21 00:26:22;;;;;;;;;;;24.00;67.00;;;;;;1989616;28;19917;-63
2022/07/21 00:27:20;;;;;;;;;;;24.10;67.10;;;;;;1989502;28;20361;-64
2022/07/21 00:28:19;;;;;;;;;;;24.00;67.00;;;;;;1989532;28;20329;-63
2022/07/21 00:29:17;;;;;;;;;;;24.00;67.00;;;;;;1989411;28;20389;-62
2022/07/21 00:30:17;;;;;;;;;;;24.00;67.10;;;;;;1989421;28;19949;-62
2022/07/21 00:31:15;;;;;;;;;;;24.10;67.20;;;;;;1989429;28;20004;-63
2022/07/21 00:32:14;;;;;;;;;;;24.00;67.10;;;;;;1989466;28;19957;-63
2022/07/21 00:33:12;;;;;;;;;;;24.10;67.20;;;;;;1989413;28;19948;-63
2022/07/21 00:34:11;;;;;;;;;;;24.00;67.10;;;;;;1989116;28;19906;-63
2022/07/21 00:35:09;;;;;;;;;;;24.00;67.10;;;;;;1989261;28;20443;-62
2022/07/21 00:36:08;;;;;;;;;;;24.00;67.10;;;;;;1989375;28;19906;-63
2022/07/21 00:37:06;;;;;;;;;;;24.00;67.10;;;;;;1989431;28;19906;-62
2022/07/21 00:38:05;;;;;;;;;;;24.00;67.10;;;;;;1989439;28;19909;-62
2022/07/21 00:39:03;;;;;;;;;;;24.00;67.20;;;;;;1989332;28;19906;-63
2022/07/21 00:40:03;;;;;;;;;;;24.00;67.10;;;;;;1980976;29;20453;-62
2022/07/21 00:41:01;;;;;;;;;;;24.00;67.10;;;;;;1981049;29;19907;-63
2022/07/21 00:42:01;;;;;;;;;;;24.00;67.10;;;;;;1988983;28;19910;-62
2022/07/21 00:43:00;;;;;;;;;;;24.00;67.20;;;;;;1989502;28;20395;-62
2022/07/21 00:43:58;;;;;;;;;;;24.00;67.20;;;;;;1989372;28;19909;-62
2022/07/21 00:44:57;;;;;;;;;;;24.00;67.20;;;;;;1989105;28;19945;-64
2022/07/21 00:45:56;;;;;;;;;;;24.00;67.20;;;;;;1981031;29;19962;-65
2022/07/21 00:46:55;;;;;;;;;;;24.00;67.20;;;;;;1980888;29;19906;-62
2022/07/21 00:47:53;;;;;;;;;;;24.00;67.20;;;;;;1988835;28;20352;-62
2022/07/21 00:48:52;;;;;;;;;;;24.00;67.20;;;;;;1989279;28;19906;-62
2022/07/21 00:49:50;;;;;;;;;;;24.00;67.20;;;;;;1989298;28;20001;-62
2022/07/21 00:50:49;;;;;;;;;;;24.00;67.20;;;;;;1989278;28;19909;-62
2022/07/21 00:51:48;;;;;;;;;;;24.00;67.20;;;;;;1989328;28;20009;-62
2022/07/21 00:52:47;;;;;;;;;;;24.00;67.20;;;;;;1989275;28;19953;-63
2022/07/21 00:53:45;;;;;;;;;;;24.00;67.20;;;;;;1989329;28;20400;-62
2022/07/21 00:54:44;;;;;;;;;;;24.00;67.20;;;;;;1989251;28;19906;-62
2022/07/21 00:55:43;;;;;;;;;;;24.00;67.20;;;;;;1989354;28;19945;-62
2022/07/21 00:56:42;;;;;;;;;;;24.00;67.20;;;;;;1989284;28;19906;-62
2022/07/21 00:57:41;;;;;;;;;;;24.00;67.20;;;;;;1989016;28;19910;-62
2022/07/21 00:58:40;;;;;;;;;;;24.00;67.20;;;;;;1980881;29;19906;-62
2022/07/21 00:59:39;;;;;;;;;;;24.00;67.20;;;;;;1981153;29;19906;-62
2022/07/21 01:00:38;;;;;;;;;;;24.00;67.20;;;;;;1988910;28;20275;-62
2022/07/21 01:01:37;;;;;;;;;;;24.00;67.30;;;;;;1989268;28;20370;-63
2022/07/21 01:02:36;;;;;;;;;;;24.00;67.20;;;;;;1989376;28;19906;-61
2022/07/21 01:03:35;;;;;;;;;;;24.00;67.20;;;;;;1989345;28;19912;-61
2022/07/21 01:04:33;;;;;;;;;;;24.00;67.20;;;;;;1989142;28;20329;-61
2022/07/21 01:05:32;;;;;;;;;;;24.00;67.20;;;;;;1989339;28;19906;-61
2022/07/21 01:06:31;;;;;;;;;;;24.00;67.30;;;;;;1989364;28;20457;-62
2022/07/21 01:07:29;;;;;;;;;;;24.00;67.30;;;;;;1989276;28;19961;-64
2022/07/21 01:08:28;;;;;;;;;;;24.00;67.30;;;;;;1989220;28;19997;-61
2022/07/21 01:09:27;;;;;;;;;;;24.00;67.30;;;;;;1989138;28;19906;-62
2022/07/21 01:10:26;;;;;;;;;;;24.00;67.30;;;;;;1989120;28;19961;-62
2022/07/21 01:11:24;;;;;;;;;;;24.00;67.30;;;;;;1989179;28;20353;-62
2022/07/21 01:12:23;;;;;;;;;;;24.00;67.30;;;;;;1989165;28;19929;-62
2022/07/21 01:13:22;;;;;;;;;;;24.00;67.30;;;;;;1989271;28;19982;-62
2022/07/21 01:14:20;;;;;;;;;;;24.00;67.30;;;;;;1989142;28;19906;-62
2022/07/21 01:15:19;;;;;;;;;;;24.00;67.30;;;;;;1989409;28;19929;-62
2022/07/21 01:16:17;;;;;;;;;;;24.00;67.30;;;;;;1989226;28;19905;-62
2022/07/21 01:17:16;;;;;;;;;;;24.00;67.40;;;;;;1989221;28;19906;-62
2022/07/21 01:23:24;;;;;;;;;;;24.00;67.40;;;;;;1989269;28;19910;-62
2022/07/21 01:24:23;;;;;;;;;;;24.00;67.40;;;;;;1989085;28;20344;-62
2022/07/21 01:25:21;;;;;;;;;;;24.00;67.50;;;;;;1989187;28;19917;-62
2022/07/21 01:26:20;;;;;;;;;;;24.00;67.40;;;;;;1981259;28;20017;-62
2022/07/21 01:27:18;;;;;;;;;;;24.00;67.40;;;;;;1982432;29;19906;-62
2022/07/21 01:28:17;;;;;;;;;;;24.00;67.40;;;;;;1990110;28;19913;-62
2022/07/21 01:29:16;;;;;;;;;;;24.00;67.40;;;;;;1990655;28;19964;-62
2022/07/21 01:30:15;;;;;;;;;;;24.00;67.50;;;;;;1990775;28;20345;-63
2022/07/21 01:31:14;;;;;;;;;;;24.00;67.50;;;;;;1990688;28;19906;-61
2022/07/21 01:32:12;;;;;;;;;;;24.00;67.50;;;;;;1990635;28;20417;-62
2022/07/21 01:33:11;;;;;;;;;;;24.00;67.50;;;;;;1990614;28;20365;-62
2022/07/21 01:34:09;;;;;;;;;;;24.00;67.50;;;;;;1990402;28;20012;-62
2022/07/21 01:35:10;;;;;;;;;;;24.00;67.50;;;;;;1990555;28;19913;-62
2022/07/21 01:36:08;;;;;;;;;;;24.00;67.50;;;;;;1990628;28;20001;-63
2022/07/21 01:37:07;;;;;;;;;;;24.00;67.60;;;;;;1990621;28;19906;-62
2022/07/21 01:41:28;;;;;;;;;;;24.00;67.50;;;;;;1990704;28;19906;-62
2022/07/21 01:41:58;;;;;;;;;;;24.00;67.60;;;;;;1990637;28;20347;-62
2022/07/21 01:42:57;;;;;;;;;;;24.00;67.50;;;;;;1982313;29;19910;-62
2022/07/21 01:43:56;;;;;;;;;;;24.00;68.20;;;;;;1982224;29;19921;-62
2022/07/21 01:44:57;;;;;;;;;;;24.00;67.60;;;;;;1989831;28;19918;-61
2022/07/21 01:45:55;;;;;;;;;;;24.00;67.70;;;;;;1990510;28;19956;-61
2022/07/21 01:46:54;;;;;;;;;;;24.00;67.70;;;;;;1990459;28;19913;-62
2022/07/21 01:47:52;;;;;;;;;;;24.00;67.70;;;;;;1990593;28;19945;-62
2022/07/21 01:48:51;;;;;;;;;;;24.00;67.70;;;;;;1990526;28;19906;-62
2022/07/21 01:49:49;;;;;;;;;;;24.00;67.70;;;;;;1990524;28;19917;-61
2022/07/21 01:50:48;;;;;;;;;;;24.00;67.70;;;;;;1974389;29;19993;-62
2022/07/21 01:51:47;;;;;;;;;;;23.90;67.60;;;;;;1974678;29;20346;-61
2022/07/21 01:52:45;;;;;;;;;;;24.00;67.70;;;;;;1989477;28;20080;-61
2022/07/21 01:53:44;;;;;;;;;;;23.90;67.60;;;;;;1990493;28;19946;-61
2022/07/21 01:54:42;;;;;;;;;;;24.00;67.70;;;;;;1990367;28;19910;-62
2022/07/21 01:55:41;;;;;;;;;;;23.90;67.70;;;;;;1990329;28;20407;-61
2022/07/21 01:56:39;;;;;;;;;;;24.00;67.70;;;;;;1990459;28;19910;-61
2022/07/21 01:57:38;;;;;;;;;;;24.00;67.70;;;;;;1990573;28;19906;-62
2022/07/21 01:58:36;;;;;;;;;;;23.90;67.70;;;;;;1990902;28;19906;-62
2022/07/21 01:59:35;;;;;;;;;;;24.00;67.80;;;;;;1990518;28;19925;-63
2022/07/21 02:00:33;;;;;;;;;;;23.90;67.70;;;;;;1990512;28;20372;-61
2022/07/21 02:01:33;;;;;;;;;;;23.90;67.70;;;;;;1990468;28;19906;-62
2022/07/21 02:02:31;;;;;;;;;;;23.90;67.70;;;;;;1990420;28;20045;-62
2022/07/21 02:03:30;;;;;;;;;;;23.90;67.70;;;;;;1981809;29;19918;-62
2022/07/21 02:04:28;;;;;;;;;;;23.90;67.70;;;;;;1981409;29;19989;-61
2022/07/21 02:05:27;;;;;;;;;;;23.90;67.70;;;;;;1989534;28;19948;-61
2022/07/21 02:06:26;;;;;;;;;;;23.90;67.80;;;;;;1990126;28;19913;-62
2022/07/21 02:07:24;;;;;;;;;;;23.90;67.80;;;;;;1989959;28;20017;-61
2022/07/21 02:08:23;;;;;;;;;;;23.90;67.80;;;;;;1990343;28;19906;-61
2022/07/21 02:09:21;;;;;;;;;;;23.90;67.70;;;;;;1990424;28;19906;-62
2022/07/21 02:10:20;;;;;;;;;;;23.90;67.70;;;;;;1990453;28;19913;-61
2022/07/21 02:11:18;;;;;;;;;;;23.90;67.80;;;;;;1990373;28;20318;-62
2022/07/21 02:12:17;;;;;;;;;;;23.90;67.90;;;;;;1990338;28;20368;-62
2022/07/21 02:13:15;;;;;;;;;;;23.90;67.80;;;;;;1990432;28;19966;-61
2022/07/21 02:14:14;;;;;;;;;;;24.00;67.90;;;;;;1990498;28;19993;-62
2022/07/21 02:15:12;;;;;;;;;;;23.90;67.80;;;;;;1990377;28;19926;-62
2022/07/21 02:16:11;;;;;;;;;;;23.90;67.80;;;;;;1981962;29;19907;-62
2022/07/21 02:17:10;;;;;;;;;;;23.90;67.90;;;;;;1982096;29;19962;-61
2022/07/21 02:18:09;;;;;;;;;;;23.90;67.90;;;;;;1989900;28;19906;-62
2022/07/21 02:19:08;;;;;;;;;;;23.90;67.90;;;;;;1990292;28;19945;-62
2022/07/21 02:20:07;;;;;;;;;;;23.90;68.00;;;;;;1990281;28;19906;-61
2022/07/21 02:21:05;;;;;;;;;;;23.90;67.90;;;;;;1990346;28;19993;-61
2022/07/21 02:22:04;;;;;;;;;;;23.90;67.90;;;;;;1990303;28;20007;-62
2022/07/21 02:23:02;;;;;;;;;;;23.90;67.90;;;;;;1990409;28;19906;-62
2022/07/21 02:24:01;;;;;;;;;;;23.90;67.90;;;;;;1990315;28;20277;-62
2022/07/21 02:24:59;;;;;;;;;;;23.90;67.90;;;;;;1990423;28;20361;-62
2022/07/21 02:25:58;;;;;;;;;;;23.90;68.00;;;;;;1990424;28;19929;-62
2022/07/21 02:26:57;;;;;;;;;;;23.90;68.00;;;;;;1990304;28;19906;-62
2022/07/21 02:27:55;;;;;;;;;;;23.90;68.00;;;;;;1990276;28;19906;-61
2022/07/21 02:28:54;;;;;;;;;;;23.90;68.00;;;;;;1990375;28;19906;-61
2022/07/21 02:29:52;;;;;;;;;;;23.90;68.00;;;;;;1989887;28;19945;-61
2022/07/21 02:30:51;;;;;;;;;;;23.90;68.00;;;;;;1989944;28;19906;-62
2022/07/21 02:31:49;;;;;;;;;;;23.90;68.00;;;;;;1990237;28;19910;-61
2022/07/21 02:32:48;;;;;;;;;;;23.90;68.00;;;;;;1990293;28;20001;-62
2022/07/21 02:33:46;;;;;;;;;;;23.90;68.00;;;;;;1990148;28;20017;-61
2022/07/21 02:34:45;;;;;;;;;;;23.90;68.10;;;;;;1990132;28;19906;-62
2022/07/21 02:35:44;;;;;;;;;;;23.90;68.10;;;;;;1990203;28;19906;-61
2022/07/21 02:36:42;;;;;;;;;;;23.90;68.10;;;;;;1990058;28;19941;-61
2022/07/21 02:37:41;;;;;;;;;;;23.80;67.90;;;;;;1989488;28;19906;-61
2022/07/21 02:38:39;;;;;;;;;;;23.90;68.10;;;;;;1989661;28;19913;-61
2022/07/21 02:39:38;;;;;;;;;;;23.90;68.10;;;;;;1990141;28;19914;-61
2022/07/21 02:40:36;;;;;;;;;;;23.90;68.10;;;;;;1990066;28;20425;-62
2022/07/21 02:41:35;;;;;;;;;;;23.80;68.00;;;;;;1990022;28;20001;-62
2022/07/21 02:42:33;;;;;;;;;;;23.90;68.10;;;;;;1990037;28;19956;-62
2022/07/21 02:43:32;;;;;;;;;;;23.90;68.10;;;;;;1990224;28;19906;-61
2022/07/21 02:44:30;;;;;;;;;;;23.90;68.20;;;;;;1989885;28;19921;-62
2022/07/21 02:45:29;;;;;;;;;;;23.90;68.10;;;;;;1990099;28;19906;-62
2022/07/21 02:46:27;;;;;;;;;;;23.90;68.10;;;;;;1990097;28;19906;-62
2022/07/21 02:47:26;;;;;;;;;;;23.90;68.20;;;;;;1990268;28;19906;-62
2022/07/21 02:48:24;;;;;;;;;;;23.90;68.20;;;;;;1981794;29;19997;-62
2022/07/21 02:49:23;;;;;;;;;;;23.90;68.20;;;;;;1981859;29;19906;-62
2022/07/21 02:50:22;;;;;;;;;;;23.90;68.20;;;;;;1989653;28;19910;-61
2022/07/21 02:51:21;;;;;;;;;;;23.90;68.20;;;;;;1990167;28;19999;-61
2022/07/21 02:52:19;;;;;;;;;;;23.80;68.10;;;;;;1990098;28;19910;-61
2022/07/21 02:53:19;;;;;;;;;;;23.80;68.10;;;;;;1990076;28;19964;-64
2022/07/21 02:54:17;;;;;;;;;;;23.90;68.20;;;;;;1989916;28;19906;-61
2022/07/21 02:55:16;;;;;;;;;;;23.80;68.10;;;;;;1990009;28;20002;-61
2022/07/21 02:56:15;;;;;;;;;;;23.90;68.20;;;;;;1990034;28;19910;-61
2022/07/21 02:57:13;;;;;;;;;;;23.90;68.20;;;;;;1989994;28;19906;-62
2022/07/21 02:58:14;;;;;;;;;;;23.90;68.20;;;;;;1981742;29;19928;-61
2022/07/21 02:59:13;;;;;;;;;;;23.90;68.20;;;;;;1981830;29;19988;-61
2022/07/21 03:00:12;;;;;;;;;;;23.80;68.10;;;;;;1989983;28;19960;-62
2022/07/21 03:01:10;;;;;;;;;;;23.90;68.20;;;;;;1990083;28;20376;-62
2022/07/21 03:02:09;;;;;;;;;;;23.90;68.20;;;;;;1990028;28;19913;-62
2022/07/21 03:03:08;;;;;;;;;;;23.90;68.20;;;;;;1990050;28;19906;-62
2022/07/21 03:04:06;;;;;;;;;;;23.90;68.20;;;;;;1989957;28;19906;-62
2022/07/21 03:05:05;;;;;;;;;;;23.90;68.30;;;;;;1990065;28;20384;-63
2022/07/21 03:06:04;;;;;;;;;;;23.90;68.30;;;;;;1989844;28;19906;-62
2022/07/21 03:07:03;;;;;;;;;;;23.90;68.30;;;;;;1989871;28;19913;-62
2022/07/21 03:08:01;;;;;;;;;;;23.80;68.20;;;;;;1989922;28;19917;-62
2022/07/21 03:09:00;;;;;;;;;;;23.90;68.40;;;;;;1989818;28;19910;-62
2022/07/21 03:09:58;;;;;;;;;;;23.80;68.20;;;;;;1990250;28;19905;-62
2022/07/21 03:10:57;;;;;;;;;;;23.80;68.30;;;;;;1989930;28;20308;-62
2022/07/21 03:11:55;;;;;;;;;;;23.80;68.20;;;;;;1990068;28;20197;-62
2022/07/21 03:12:54;;;;;;;;;;;23.90;68.40;;;;;;1990013;28;19906;-62
2022/07/21 03:13:52;;;;;;;;;;;23.80;68.30;;;;;;1990020;28;20005;-62
2022/07/21 03:14:51;;;;;;;;;;;23.90;68.40;;;;;;1989889;28;19913;-62
2022/07/21 03:15:49;;;;;;;;;;;23.80;68.30;;;;;;1990168;28;19910;-61
2022/07/21 03:16:48;;;;;;;;;;;23.80;68.20;;;;;;1989973;28;19906;-62
2022/07/21 03:17:46;;;;;;;;;;;23.90;68.40;;;;;;1989791;28;19945;-62
2022/07/21 03:18:45;;;;;;;;;;;23.90;68.40;;;;;;1989783;28;19913;-62
2022/07/21 03:19:43;;;;;;;;;;;23.80;68.30;;;;;;1989816;28;20092;-62
2022/07/21 03:20:42;;;;;;;;;;;23.80;68.40;;;;;;1989740;28;19960;-62
2022/07/21 03:21:41;;;;;;;;;;;23.80;68.40;;;;;;1989819;28;19910;-62
2022/07/21 03:22:39;;;;;;;;;;;23.80;68.40;;;;;;1989868;28;20276;-62
2022/07/21 03:23:38;;;;;;;;;;;23.80;68.40;;;;;;1989823;28;20293;-62
2022/07/21 03:24:36;;;;;;;;;;;23.90;68.50;;;;;;1989779;28;20312;-62
2022/07/21 03:25:35;;;;;;;;;;;23.80;68.40;;;;;;1989804;28;20310;-62
2022/07/21 03:26:38;;;;;;;;;;;23.80;68.40;;;;;;1989755;28;19914;-62
2022/07/21 03:27:36;;;;;;;;;;;23.80;68.40;;;;;;1989250;28;19906;-62
2022/07/21 03:28:35;;;;;;;;;;;23.80;68.40;;;;;;1989258;28;19913;-62
2022/07/21 03:29:34;;;;;;;;;;;23.80;68.40;;;;;;1989617;28;19906;-62
2022/07/21 03:30:32;;;;;;;;;;;23.80;68.40;;;;;;1989858;28;19913;-62
2022/07/21 03:31:31;;;;;;;;;;;23.80;68.40;;;;;;1989827;28;19906;-62
2022/07/21 03:32:29;;;;;;;;;;;23.80;68.40;;;;;;1989750;28;19917;-62
2022/07/21 03:33:28;;;;;;;;;;;23.80;68.40;;;;;;1989718;28;19978;-62
2022/07/21 03:34:26;;;;;;;;;;;23.80;68.40;;;;;;1989647;28;19973;-62
2022/07/21 03:35:25;;;;;;;;;;;23.80;68.50;;;;;;1989820;28;19914;-62
2022/07/21 03:36:23;;;;;;;;;;;23.80;68.50;;;;;;1981434;29;19910;-62
2022/07/21 03:37:22;;;;;;;;;;;23.80;68.50;;;;;;1981281;29;19945;-62
2022/07/21 03:38:20;;;;;;;;;;;23.80;68.50;;;;;;1989077;28;19910;-62
2022/07/21 03:39:19;;;;;;;;;;;23.90;68.60;;;;;;1989728;28;19910;-62
2022/07/21 03:40:19;;;;;;;;;;;23.80;68.50;;;;;;1989742;28;19906;-62
2022/07/21 03:41:17;;;;;;;;;;;23.80;68.50;;;;;;1989851;28;19957;-62
2022/07/21 03:42:16;;;;;;;;;;;23.90;68.70;;;;;;1989653;28;19942;-62
2022/07/21 03:43:15;;;;;;;;;;;23.80;68.50;;;;;;1989562;28;20393;-62
2022/07/21 03:44:14;;;;;;;;;;;23.80;68.50;;;;;;1988474;28;20365;-61
2022/07/21 03:45:12;;;;;;;;;;;23.80;68.60;;;;;;1989052;28;19906;-61
2022/07/21 03:46:10;;;;;;;;;;;23.80;68.60;;;;;;1989176;28;20300;-62
2022/07/21 03:47:09;;;;;;;;;;;23.80;68.60;;;;;;1989460;28;20364;-62
2022/07/21 03:48:09;;;;;;;;;;;23.90;68.70;;;;;;1989101;28;20485;-61
2022/07/21 03:49:07;;;;;;;;;;;23.80;68.60;;;;;;1988498;28;19906;-62
2022/07/21 03:50:06;;;;;;;;;;;23.80;68.60;;;;;;1989440;28;19913;-62
2022/07/21 03:51:05;;;;;;;;;;;23.80;68.60;;;;;;1981248;29;20034;-62
2022/07/21 03:52:04;;;;;;;;;;;23.80;68.60;;;;;;1981273;29;19910;-62
2022/07/21 03:53:03;;;;;;;;;;;23.80;68.60;;;;;;1989235;28;19906;-62
2022/07/21 03:54:02;;;;;;;;;;;23.80;68.60;;;;;;1989640;28;20349;-61
2022/07/21 03:55:09;;;;;;;;;;;23.80;68.60;;;;;;1989553;28;19960;-62
2022/07/21 03:56:07;;;;;;;;;;;23.80;68.60;;;;;;1988790;28;19947;-63
2022/07/21 03:57:06;;;;;;;;;;;23.80;68.60;;;;;;1989673;28;19906;-62
2022/07/21 03:58:05;;;;;;;;;;;23.80;68.60;;;;;;1989118;28;19906;-63
2022/07/21 03:59:04;;;;;;;;;;;23.90;68.70;;;;;;1989465;28;19905;-61
2022/07/21 04:00:04;;;;;;;;;;;23.90;68.70;;;;;;1989418;28;20353;-62
2022/07/21 04:01:02;;;;;;;;;;;23.80;68.60;;;;;;1989432;28;19917;-62
2022/07/21 04:02:01;;;;;;;;;;;23.80;68.60;;;;;;1989540;28;19914;-61
2022/07/21 04:03:00;;;;;;;;;;;23.80;68.60;;;;;;1989626;28;19910;-62
2022/07/21 04:03:58;;;;;;;;;;;23.80;68.70;;;;;;1989544;28;19910;-63
2022/07/21 04:04:57;;;;;;;;;;;23.80;68.70;;;;;;1989582;28;19906;-63
2022/07/21 04:05:55;;;;;;;;;;;23.80;68.70;;;;;;1989242;28;19906;-62
2022/07/21 04:06:54;;;;;;;;;;;23.80;68.70;;;;;;1989485;28;19906;-62
2022/07/21 04:07:53;;;;;;;;;;;23.80;68.80;;;;;;1989510;28;19914;-62
2022/07/21 04:08:51;;;;;;;;;;;23.80;68.70;;;;;;1989519;28;19910;-62
2022/07/21 04:09:50;;;;;;;;;;;23.80;68.70;;;;;;1989479;28;19980;-63
2022/07/21 04:10:48;;;;;;;;;;;23.80;68.70;;;;;;1989484;28;19928;-63
2022/07/21 04:11:47;;;;;;;;;;;23.80;68.70;;;;;;1989557;28;19913;-62
2022/07/21 04:12:45;;;;;;;;;;;23.80;68.70;;;;;;1989719;28;20068;-62
2022/07/21 04:13:44;;;;;;;;;;;23.80;68.80;;;;;;1989454;28;19980;-63
2022/07/21 04:14:44;;;;;;;;;;;23.80;68.70;;;;;;1989428;28;19932;-62
2022/07/21 04:15:42;;;;;;;;;;;23.80;68.80;;;;;;1989406;28;20002;-62
2022/07/21 04:16:40;;;;;;;;;;;23.80;68.80;;;;;;1989245;28;19914;-63
2022/07/21 04:17:39;;;;;;;;;;;23.80;68.90;;;;;;1989429;28;19945;-62
2022/07/21 04:18:38;;;;;;;;;;;23.80;68.80;;;;;;1989416;28;20353;-61
2022/07/21 04:19:36;;;;;;;;;;;23.80;68.90;;;;;;1989498;28;19917;-63
2022/07/21 04:20:35;;;;;;;;;;;23.80;68.80;;;;;;1981114;29;19917;-61
2022/07/21 04:21:34;;;;;;;;;;;23.80;68.90;;;;;;1981248;29;19942;-61
2022/07/21 04:22:33;;;;;;;;;;;23.80;68.90;;;;;;1988955;28;20365;-62
2022/07/21 04:23:32;;;;;;;;;;;23.80;68.90;;;;;;1989470;28;19916;-63
2022/07/21 04:24:30;;;;;;;;;;;23.80;68.90;;;;;;1989381;28;19913;-63
2022/07/21 04:25:29;;;;;;;;;;;23.80;68.90;;;;;;1989463;28;19906;-61
2022/07/21 04:26:27;;;;;;;;;;;23.80;68.90;;;;;;1989271;28;19913;-62
2022/07/21 04:27:26;;;;;;;;;;;23.80;68.90;;;;;;1989469;28;19905;-62
2022/07/21 04:28:25;;;;;;;;;;;23.80;68.90;;;;;;1989427;28;19992;-62
2022/07/21 04:29:23;;;;;;;;;;;23.80;68.90;;;;;;1989447;28;19906;-62
2022/07/21 04:30:22;;;;;;;;;;;23.80;68.90;;;;;;1989131;28;19933;-62
2022/07/21 04:31:21;;;;;;;;;;;23.90;69.00;;;;;;1980926;29;19907;-62
2022/07/21 04:32:19;;;;;;;;;;;23.80;68.90;;;;;;1981105;29;19910;-62
2022/07/21 04:33:18;;;;;;;;;;;23.80;68.90;;;;;;1988840;28;19906;-62
2022/07/21 04:34:16;;;;;;;;;;;23.80;68.90;;;;;;1989359;28;19949;-62
2022/07/21 04:35:15;;;;;;;;;;;23.80;68.90;;;;;;1989530;28;19945;-62
2022/07/21 04:36:13;;;;;;;;;;;23.80;68.90;;;;;;1989420;28;19932;-62
2022/07/21 04:37:12;;;;;;;;;;;23.80;68.90;;;;;;1989368;28;19906;-62
2022/07/21 04:38:11;;;;;;;;;;;23.80;68.90;;;;;;1989572;28;19996;-61
2022/07/21 04:39:09;;;;;;;;;;;23.80;69.00;;;;;;1989336;28;19906;-62
2022/07/21 04:40:08;;;;;;;;;;;23.90;69.00;;;;;;1989336;28;19910;-62
2022/07/21 04:41:07;;;;;;;;;;;23.90;69.10;;;;;;1989444;28;19910;-62
2022/07/21 04:42:05;;;;;;;;;;;23.80;69.00;;;;;;1989381;28;20333;-62
2022/07/21 04:43:04;;;;;;;;;;;23.80;69.00;;;;;;1989424;28;19945;-62
2022/07/21 04:44:02;;;;;;;;;;;23.80;69.10;;;;;;1989369;28;19906;-62
2022/07/21 04:45:01;;;;;;;;;;;23.90;69.20;;;;;;1989204;28;19945;-62
2022/07/21 04:46:01;;;;;;;;;;;23.80;69.00;;;;;;1989166;28;20424;-62
2022/07/21 04:46:59;;;;;;;;;;;23.90;69.10;;;;;;1989282;28;19949;-62
2022/07/21 04:47:58;;;;;;;;;;;23.80;69.10;;;;;;1989261;28;19913;-62
2022/07/21 04:48:56;;;;;;;;;;;23.80;69.10;;;;;;1989348;28;19910;-62
2022/07/21 04:49:55;;;;;;;;;;;23.80;69.10;;;;;;1989287;28;19914;-62
2022/07/21 04:50:54;;;;;;;;;;;23.80;69.10;;;;;;1989255;28;19906;-65
2022/07/21 04:51:53;;;;;;;;;;;23.80;69.10;;;;;;1989353;28;20341;-62
2022/07/21 04:52:52;;;;;;;;;;;23.90;69.20;;;;;;1989239;28;19976;-63
2022/07/21 04:53:50;;;;;;;;;;;23.90;69.10;;;;;;1989240;28;19917;-63
2022/07/21 04:54:49;;;;;;;;;;;23.90;69.20;;;;;;1989215;28;19906;-62
2022/07/21 04:55:47;;;;;;;;;;;23.90;69.30;;;;;;1989226;28;19906;-63
2022/07/21 04:56:46;;;;;;;;;;;23.90;69.30;;;;;;1989246;28;20001;-63
2022/07/21 04:57:46;;;;;;;;;;;23.90;69.30;;;;;;1989262;28;19913;-64
2022/07/21 04:58:45;;;;;;;;;;;23.90;69.40;;;;;;1989165;28;19947;-63
2022/07/21 04:59:43;;;;;;;;;;;23.90;69.50;;;;;;1989246;28;19971;-63
2022/07/21 05:00:42;;;;;;;;;;;23.90;69.60;;;;;;1989016;28;19916;-67
2022/07/21 05:01:40;;;;;;;;;;;23.90;69.60;;;;;;1990226;28;19910;-66
2022/07/21 05:02:39;;;;;;;;;;;23.90;69.60;;;;;;1990746;28;19997;-65
2022/07/21 05:03:37;;;;;;;;;;;23.90;69.40;;;;;;1990861;28;19906;-63
2022/07/21 05:04:36;;;;;;;;;;;23.90;69.30;;;;;;1990681;28;19960;-63
2022/07/21 05:05:34;;;;;;;;;;;23.90;69.90;;;;;;1990643;28;20318;-62
2022/07/21 05:06:33;;;;;;;;;;;23.90;70.10;;;;;;1990415;28;19906;-65
2022/07/21 05:07:32;;;;;;;;;;;23.90;69.90;;;;;;1990724;28;19916;-63
2022/07/21 05:08:30;;;;;;;;;;;23.90;69.80;;;;;;1990708;28;19918;-63
2022/07/21 05:09:29;;;;;;;;;;;23.90;70.20;;;;;;1990725;28;19905;-63
2022/07/21 05:10:27;;;;;;;;;;;23.90;70.20;;;;;;1990793;28;19946;-63
2022/07/21 05:11:26;;;;;;;;;;;23.90;70.10;;;;;;1990856;28;19906;-63
2022/07/21 05:12:27;;;;;;;;;;;23.90;70.00;;;;;;1990910;28;19917;-63
2022/07/21 05:13:26;;;;;;;;;;;23.90;70.00;;;;;;1990730;28;19906;-63
2022/07/21 05:14:25;;;;;;;;;;;23.80;70.00;;;;;;1990713;28;19913;-63
2022/07/21 05:15:23;;;;;;;;;;;23.90;70.10;;;;;;1990640;28;19906;-63
2022/07/21 05:16:22;;;;;;;;;;;23.90;70.00;;;;;;1990740;28;19910;-63
2022/07/21 05:17:20;;;;;;;;;;;23.90;69.80;;;;;;1990693;28;19918;-63
2022/07/21 05:18:19;;;;;;;;;;;23.90;70.00;;;;;;1990692;28;19913;-64
2022/07/21 05:19:17;;;;;;;;;;;23.90;70.20;;;;;;1982380;29;19985;-64
2022/07/21 05:20:16;;;;;;;;;;;23.90;70.80;;;;;;1982354;29;19996;-63
2022/07/21 05:21:14;;;;;;;;;;;24.00;71.20;;;;;;1990175;28;20368;-63
2022/07/21 05:22:13;;;;;;;;;;;24.00;71.20;;;;;;1990681;28;19912;-63
2022/07/21 05:23:12;;;;;;;;;;;24.00;71.20;;;;;;1990816;28;19906;-62
2022/07/21 05:24:10;;;;;;;;;;;24.00;71.30;;;;;;1990673;28;20376;-62
2022/07/21 05:25:09;;;;;;;;;;;24.00;71.30;;;;;;1990722;28;19906;-62
2022/07/21 05:26:09;;;;;;;;;;;24.00;71.90;;;;;;1990783;28;20241;-64
2022/07/21 05:27:08;;;;;;;;;;;24.00;72.00;;;;;;1990746;28;19996;-64
2022/07/21 05:28:06;;;;;;;;;;;24.00;71.50;;;;;;1990694;28;20269;-62
2022/07/21 05:29:06;;;;;;;;;;;24.00;71.50;;;;;;1990738;28;19997;-65
2022/07/21 05:30:04;;;;;;;;;;;24.00;71.80;;;;;;1990589;28;19906;-63
2022/07/21 05:31:03;;;;;;;;;;;24.00;71.60;;;;;;1990549;28;19906;-63
2022/07/21 05:32:02;;;;;;;;;;;24.00;71.40;;;;;;1990828;28;20392;-78
2022/07/21 05:33:00;;;;;;;;;;;24.00;71.80;;;;;;1990631;28;20416;-63
2022/07/21 05:33:59;;;;;;;;;;;24.00;72.00;;;;;;1990287;28;19910;-63
2022/07/21 05:34:58;;;;;;;;;;;24.00;71.80;;;;;;1989996;28;19906;-63
2022/07/21 05:35:57;;;;;;;;;;;24.00;71.60;;;;;;1981822;29;20209;-63
2022/07/21 05:36:55;;;;;;;;;;;24.00;71.50;;;;;;1981483;29;19994;-63
2022/07/21 05:37:54;;;;;;;;;;;23.90;71.60;;;;;;1989369;28;19906;-63
2022/07/21 05:38:52;;;;;;;;;;;24.00;71.70;;;;;;1990258;28;19953;-63
2022/07/21 05:39:51;;;;;;;;;;;23.90;71.60;;;;;;1990578;28;19954;-63
2022/07/21 05:40:49;;;;;;;;;;;23.90;71.70;;;;;;1990465;28;19917;-63
2022/07/21 05:41:48;;;;;;;;;;;23.90;71.70;;;;;;1990498;28;19906;-63
2022/07/21 05:42:46;;;;;;;;;;;23.90;71.70;;;;;;1990589;28;19996;-63
2022/07/21 05:43:45;;;;;;;;;;;23.90;71.70;;;;;;1989955;28;19914;-64
2022/07/21 05:44:43;;;;;;;;;;;23.90;71.70;;;;;;1990388;28;19918;-63
2022/07/21 05:45:42;;;;;;;;;;;23.90;71.70;;;;;;1990486;28;19915;-63
2022/07/21 05:46:40;;;;;;;;;;;23.90;71.70;;;;;;1990531;28;20337;-63
2022/07/21 05:47:39;;;;;;;;;;;23.90;71.60;;;;;;1990510;28;20321;-63
2022/07/21 05:48:37;;;;;;;;;;;23.90;71.60;;;;;;1990356;28;20360;-63
2022/07/21 05:49:36;;;;;;;;;;;23.90;71.70;;;;;;1990580;28;19933;-64